sensor_id;sensor_type;location;lat;lon;timestamp;temperature;humidity
4637;DHT22;2331;48.806;9.140;2023-12-20T00:01:29;8.30;1.00
4637;DHT22;2331;48.806;9.140;2023-12-20T00:03:55;8.30;1.00
4637;DHT22;2331;48.806;9.140;2023-12-20T00:06:22;8.30;1.00
4637;DHT22;2331;48.806;9.140;2023-12-20T00:08:49;8.30;1.00
4637;DHT22;2331;48.806;9.140;2023-12-20T00:11:16;8.30;1.00
4637;DHT22;2331;48.806;9.140;2023-12-20T00:13:42;8.30;1.00
4637;DHT22;2331;48.806;9.140;2023-12-20T00:16:09;8.30;1.00
4637;DHT22;2331;48.806;9.140;2023-12-20T00:18:36;8.40;1.00
4637;DHT22;2331;48.806;9.140;2023-12-20T00:21:03;8.40;1.00
4637;DHT22;2331;48.806;9.140;2023-12-20T00:23:30;8.40;1.00
4637;DHT22;2331;48.806;9.140;2023-12-20T00:25:57;8.40;1.00
4637;DHT22;2331;48.806;9.140;2023-12-20T00:28:23;8.40;1.00
4637;DHT22;2331;48.806;9.140;2023-12-20T00:30:50;8.40;1.00
4637;DHT22;2331;48.806;9.140;2023-12-20T00:33:18;8.50;1.00
4637;DHT22;2331;48.806;9.140;2023-12-20T00:35:45;8.50;1.00
4637;DHT22;2331;48.806;9.140;2023-12-20T00:38:12;8.50;1.00
4637;DHT22;2331;48.806;9.140;2023-12-20T00:40:38;8.50;1.00
4637;DHT22;2331;48.806;9.140;2023-12-20T00:43:05;8.60;1.00
4637;DHT22;2331;48.806;9.140;2023-12-20T00:45:31;8.60;1.00
4637;DHT22;2331;48.806;9.140;2023-12-20T00:47:58;8.60;1.00
4637;DHT22;2331;48.806;9.140;2023-12-20T00:50:26;8.60;1.00
4637;DHT22;2331;48.806;9.140;2023-12-20T00:52:53;8.50;1.00
4637;DHT22;2331;48.806;9.140;2023-12-20T00:55:21;8.50;1.00
4637;DHT22;2331;48.806;9.140;2023-12-20T00:57:48;8.60;1.00
4637;DHT22;2331;48.806;9.140;2023-12-20T01:00:15;8.70;1.00
4637;DHT22;2331;48.806;9.140;2023-12-20T01:02:42;8.70;1.00
4637;DHT22;2331;48.806;9.140;2023-12-20T01:05:08;8.70;1.00
4637;DHT22;2331;48.806;9.140;2023-12-20T01:07:36;8.70;1.00
4637;DHT22;2331;48.806;9.140;2023-12-20T01:10:04;8.70;1.00
4637;DHT22;2331;48.806;9.140;2023-12-20T01:12:30;8.60;1.00
4637;DHT22;2331;48.806;9.140;2023-12-20T01:14:57;8.70;1.00
4637;DHT22;2331;48.806;9.140;2023-12-20T01:17:24;8.70;1.00
4637;DHT22;2331;48.806;9.140;2023-12-20T01:19:51;8.60;1.00
4637;DHT22;2331;48.806;9.140;2023-12-20T01:22:17;8.60;1.00
4637;DHT22;2331;48.806;9.140;2023-12-20T01:24:45;8.60;1.00
4637;DHT22;2331;48.806;9.140;2023-12-20T01:27:12;8.60;1.00
4637;DHT22;2331;48.806;9.140;2023-12-20T01:29:39;8.60;1.00
4637;DHT22;2331;48.806;9.140;2023-12-20T01:32:06;8.60;1.00
4637;DHT22;2331;48.806;9.140;2023-12-20T01:34:33;8.60;1.00
4637;DHT22;2331;48.806;9.140;2023-12-20T01:36:59;8.50;1.00
4637;DHT22;2331;48.806;9.140;2023-12-20T01:39:26;8.60;1.00
4637;DHT22;2331;48.806;9.140;2023-12-20T01:41:54;8.60;1.00
4637;DHT22;2331;48.806;9.140;2023-12-20T01:44:21;8.60;1.00
4637;DHT22;2331;48.806;9.140;2023-12-20T01:46:48;8.60;1.00
4637;DHT22;2331;48.806;9.140;2023-12-20T01:49:15;8.60;1.00
4637;DHT22;2331;48.806;9.140;2023-12-20T01:51:42;8.60;1.00
4637;DHT22;2331;48.806;9.140;2023-12-20T01:54:09;8.60;1.00
4637;DHT22;2331;48.806;9.140;2023-12-20T01:56:36;8.60;1.00
4637;DHT22;2331;48.806;9.140;2023-12-20T01:59:04;8.60;1.00
4637;DHT22;2331;48.806;9.140;2023-12-20T02:01:31;8.60;1.00
4637;DHT22;2331;48.806;9.140;2023-12-20T02:03:58;8.60;1.00
4637;DHT22;2331;48.806;9.140;2023-12-20T02:06:29;8.70;1.00
4637;DHT22;2331;48.806;9.140;2023-12-20T02:08:57;8.70;1.00
4637;DHT22;2331;48.806;9.140;2023-12-20T02:11:23;8.70;1.00
4637;DHT22;2331;48.806;9.140;2023-12-20T02:13:50;8.80;1.00
4637;DHT22;2331;48.806;9.140;2023-12-20T02:16:18;8.80;1.00
4637;DHT22;2331;48.806;9.140;2023-12-20T02:18:45;8.80;1.00
4637;DHT22;2331;48.806;9.140;2023-12-20T02:21:12;8.80;1.00
4637;DHT22;2331;48.806;9.140;2023-12-20T02:23:40;8.70;1.00
4637;DHT22;2331;48.806;9.140;2023-12-20T02:26:07;8.70;1.00
4637;DHT22;2331;48.806;9.140;2023-12-20T02:28:33;8.70;1.00
4637;DHT22;2331;48.806;9.140;2023-12-20T02:31:01;8.70;1.00
4637;DHT22;2331;48.806;9.140;2023-12-20T02:33:28;8.70;1.00
4637;DHT22;2331;48.806;9.140;2023-12-20T02:35:54;8.70;1.00
4637;DHT22;2331;48.806;9.140;2023-12-20T02:38:21;8.70;1.00
4637;DHT22;2331;48.806;9.140;2023-12-20T02:40:49;8.70;1.00
4637;DHT22;2331;48.806;9.140;2023-12-20T02:43:16;8.70;1.00
4637;DHT22;2331;48.806;9.140;2023-12-20T02:45:42;8.70;1.00
4637;DHT22;2331;48.806;9.140;2023-12-20T02:48:09;8.60;1.00
4637;DHT22;2331;48.806;9.140;2023-12-20T02:50:35;8.60;1.00
4637;DHT22;2331;48.806;9.140;2023-12-20T02:53:02;8.60;1.00
4637;DHT22;2331;48.806;9.140;2023-12-20T02:58:53;8.60;1.00
4637;DHT22;2331;48.806;9.140;2023-12-20T03:01:20;8.60;1.00
4637;DHT22;2331;48.806;9.140;2023-12-20T03:03:47;8.60;1.00
4637;DHT22;2331;48.806;9.140;2023-12-20T03:06:16;8.60;1.00
4637;DHT22;2331;48.806;9.140;2023-12-20T03:08:43;8.40;1.00
4637;DHT22;2331;48.806;9.140;2023-12-20T03:11:10;8.40;1.00
4637;DHT22;2331;48.806;9.140;2023-12-20T03:13:37;8.20;1.00
4637;DHT22;2331;48.806;9.140;2023-12-20T03:16:10;8.10;1.00
4637;DHT22;2331;48.806;9.140;2023-12-20T03:18:37;8.00;1.00
4637;DHT22;2331;48.806;9.140;2023-12-20T03:21:04;8.00;1.00
4637;DHT22;2331;48.806;9.140;2023-12-20T03:23:32;7.90;1.00
4637;DHT22;2331;48.806;9.140;2023-12-20T03:26:00;7.70;1.00
4637;DHT22;2331;48.806;9.140;2023-12-20T03:28:27;7.80;1.00
4637;DHT22;2331;48.806;9.140;2023-12-20T03:30:54;7.90;1.00
4637;DHT22;2331;48.806;9.140;2023-12-20T03:33:22;7.90;1.00
4637;DHT22;2331;48.806;9.140;2023-12-20T03:35:49;8.00;1.00
4637;DHT22;2331;48.806;9.140;2023-12-20T03:38:16;8.00;1.00
4637;DHT22;2331;48.806;9.140;2023-12-20T03:40:42;7.90;1.00
4637;DHT22;2331;48.806;9.140;2023-12-20T03:43:09;7.90;1.00
4637;DHT22;2331;48.806;9.140;2023-12-20T03:45:36;7.90;1.00
4637;DHT22;2331;48.806;9.140;2023-12-20T03:48:03;7.80;1.00
4637;DHT22;2331;48.806;9.140;2023-12-20T03:50:31;7.80;1.00
4637;DHT22;2331;48.806;9.140;2023-12-20T03:52:58;7.80;1.00
4637;DHT22;2331;48.806;9.140;2023-12-20T03:55:25;7.90;1.00
4637;DHT22;2331;48.806;9.140;2023-12-20T03:57:51;8.00;1.00
4637;DHT22;2331;48.806;9.140;2023-12-20T04:00:18;7.90;1.00
4637;DHT22;2331;48.806;9.140;2023-12-20T04:02:45;7.90;1.00
4637;DHT22;2331;48.806;9.140;2023-12-20T04:05:12;7.80;1.00
4637;DHT22;2331;48.806;9.140;2023-12-20T04:07:40;7.80;1.00
4637;DHT22;2331;48.806;9.140;2023-12-20T04:10:07;7.70;1.00
4637;DHT22;2331;48.806;9.140;2023-12-20T04:12:34;7.80;1.00
4637;DHT22;2331;48.806;9.140;2023-12-20T04:15:01;7.80;1.00
4637;DHT22;2331;48.806;9.140;2023-12-20T04:17:32;7.70;1.00
4637;DHT22;2331;48.806;9.140;2023-12-20T04:19:58;7.70;1.00
4637;DHT22;2331;48.806;9.140;2023-12-20T04:22:25;7.80;1.00
4637;DHT22;2331;48.806;9.140;2023-12-20T04:24:53;7.70;1.00
4637;DHT22;2331;48.806;9.140;2023-12-20T04:27:20;7.70;1.00
4637;DHT22;2331;48.806;9.140;2023-12-20T04:29:46;7.70;1.00
4637;DHT22;2331;48.806;9.140;2023-12-20T04:32:13;7.70;1.00
4637;DHT22;2331;48.806;9.140;2023-12-20T04:34:40;7.70;1.00
4637;DHT22;2331;48.806;9.140;2023-12-20T04:37:06;7.70;1.00
4637;DHT22;2331;48.806;9.140;2023-12-20T04:39:33;7.80;1.00
4637;DHT22;2331;48.806;9.140;2023-12-20T04:42:01;7.90;1.00
4637;DHT22;2331;48.806;9.140;2023-12-20T04:44:28;7.60;1.00
4637;DHT22;2331;48.806;9.140;2023-12-20T04:46:55;7.60;1.00
4637;DHT22;2331;48.806;9.140;2023-12-20T04:49:23;7.60;1.00
4637;DHT22;2331;48.806;9.140;2023-12-20T04:51:49;7.50;1.00
4637;DHT22;2331;48.806;9.140;2023-12-20T04:54:16;7.70;1.00
4637;DHT22;2331;48.806;9.140;2023-12-20T04:56:43;7.70;1.00
4637;DHT22;2331;48.806;9.140;2023-12-20T04:59:11;7.70;1.00
4637;DHT22;2331;48.806;9.140;2023-12-20T05:01:37;7.60;1.00
4637;DHT22;2331;48.806;9.140;2023-12-20T05:04:04;7.60;1.00
4637;DHT22;2331;48.806;9.140;2023-12-20T05:06:30;7.60;1.00
4637;DHT22;2331;48.806;9.140;2023-12-20T05:08:57;7.60;1.00
4637;DHT22;2331;48.806;9.140;2023-12-20T05:11:23;7.60;1.00
4637;DHT22;2331;48.806;9.140;2023-12-20T05:13:50;7.60;1.00
4637;DHT22;2331;48.806;9.140;2023-12-20T05:16:18;7.70;1.00
4637;DHT22;2331;48.806;9.140;2023-12-20T05:18:45;7.70;1.00
4637;DHT22;2331;48.806;9.140;2023-12-20T05:21:12;7.60;1.00
4637;DHT22;2331;48.806;9.140;2023-12-20T05:23:38;7.50;1.00
4637;DHT22;2331;48.806;9.140;2023-12-20T05:26:05;7.60;1.00
4637;DHT22;2331;48.806;9.140;2023-12-20T05:28:32;7.60;1.00
4637;DHT22;2331;48.806;9.140;2023-12-20T05:30:58;7.50;1.00
4637;DHT22;2331;48.806;9.140;2023-12-20T05:33:26;7.60;1.00
4637;DHT22;2331;48.806;9.140;2023-12-20T05:35:53;7.60;1.00
4637;DHT22;2331;48.806;9.140;2023-12-20T05:38:20;7.60;1.00
4637;DHT22;2331;48.806;9.140;2023-12-20T05:40:47;7.60;1.00
4637;DHT22;2331;48.806;9.140;2023-12-20T05:43:13;7.60;1.00
4637;DHT22;2331;48.806;9.140;2023-12-20T05:45:40;7.60;1.00
4637;DHT22;2331;48.806;9.140;2023-12-20T05:48:07;7.60;1.00
4637;DHT22;2331;48.806;9.140;2023-12-20T05:50:35;7.50;1.00
4637;DHT22;2331;48.806;9.140;2023-12-20T05:53:02;7.50;1.00
4637;DHT22;2331;48.806;9.140;2023-12-20T05:55:29;7.50;1.00
4637;DHT22;2331;48.806;9.140;2023-12-20T05:57:55;7.60;1.00
4637;DHT22;2331;48.806;9.140;2023-12-20T06:00:22;7.50;1.00
4637;DHT22;2331;48.806;9.140;2023-12-20T06:02:50;7.50;1.00
4637;DHT22;2331;48.806;9.140;2023-12-20T06:05:17;7.60;1.00
4637;DHT22;2331;48.806;9.140;2023-12-20T06:07:45;7.60;1.00
4637;DHT22;2331;48.806;9.140;2023-12-20T06:10:13;7.60;1.00
4637;DHT22;2331;48.806;9.140;2023-12-20T06:12:40;7.60;1.00
4637;DHT22;2331;48.806;9.140;2023-12-20T06:15:07;7.60;1.00
4637;DHT22;2331;48.806;9.140;2023-12-20T06:17:34;7.50;1.00
4637;DHT22;2331;48.806;9.140;2023-12-20T06:20:01;7.60;1.00
4637;DHT22;2331;48.806;9.140;2023-12-20T06:22:33;7.60;1.00
4637;DHT22;2331;48.806;9.140;2023-12-20T06:25:01;7.70;1.00
4637;DHT22;2331;48.806;9.140;2023-12-20T06:27:28;7.80;1.00
4637;DHT22;2331;48.806;9.140;2023-12-20T06:29:55;7.70;1.00
4637;DHT22;2331;48.806;9.140;2023-12-20T06:32:22;7.70;1.00
4637;DHT22;2331;48.806;9.140;2023-12-20T06:34:50;7.70;1.00
4637;DHT22;2331;48.806;9.140;2023-12-20T06:37:16;7.60;1.00
4637;DHT22;2331;48.806;9.140;2023-12-20T06:39:43;7.50;1.00
4637;DHT22;2331;48.806;9.140;2023-12-20T06:42:11;7.50;1.00
4637;DHT22;2331;48.806;9.140;2023-12-20T06:44:38;7.60;1.00
4637;DHT22;2331;48.806;9.140;2023-12-20T06:47:05;7.60;1.00
4637;DHT22;2331;48.806;9.140;2023-12-20T06:49:32;7.60;1.00
4637;DHT22;2331;48.806;9.140;2023-12-20T06:51:58;7.70;1.00
4637;DHT22;2331;48.806;9.140;2023-12-20T06:54:25;7.80;1.00
4637;DHT22;2331;48.806;9.140;2023-12-20T06:56:52;7.90;1.00
4637;DHT22;2331;48.806;9.140;2023-12-20T06:59:20;7.90;1.00
4637;DHT22;2331;48.806;9.140;2023-12-20T07:01:48;7.90;1.00
4637;DHT22;2331;48.806;9.140;2023-12-20T07:04:15;8.00;1.00
4637;DHT22;2331;48.806;9.140;2023-12-20T07:06:42;8.00;1.00
4637;DHT22;2331;48.806;9.140;2023-12-20T07:09:08;7.90;1.00
4637;DHT22;2331;48.806;9.140;2023-12-20T07:11:36;7.90;1.00
4637;DHT22;2331;48.806;9.140;2023-12-20T07:14:02;7.90;1.00
4637;DHT22;2331;48.806;9.140;2023-12-20T07:16:30;7.60;1.00
4637;DHT22;2331;48.806;9.140;2023-12-20T07:18:57;7.60;1.00
4637;DHT22;2331;48.806;9.140;2023-12-20T07:21:24;7.40;1.00
4637;DHT22;2331;48.806;9.140;2023-12-20T07:23:51;7.40;1.00
4637;DHT22;2331;48.806;9.140;2023-12-20T07:26:18;7.30;1.00
4637;DHT22;2331;48.806;9.140;2023-12-20T07:28:45;7.30;1.00
4637;DHT22;2331;48.806;9.140;2023-12-20T07:31:11;7.20;1.00
4637;DHT22;2331;48.806;9.140;2023-12-20T07:33:40;7.40;1.00
4637;DHT22;2331;48.806;9.140;2023-12-20T07:36:07;7.30;1.00
4637;DHT22;2331;48.806;9.140;2023-12-20T07:38:34;7.20;1.00
4637;DHT22;2331;48.806;9.140;2023-12-20T07:41:01;7.30;1.00
4637;DHT22;2331;48.806;9.140;2023-12-20T07:43:28;7.40;1.00
4637;DHT22;2331;48.806;9.140;2023-12-20T07:45:54;7.60;1.00
4637;DHT22;2331;48.806;9.140;2023-12-20T07:48:21;7.50;1.00
4637;DHT22;2331;48.806;9.140;2023-12-20T07:50:49;7.50;1.00
4637;DHT22;2331;48.806;9.140;2023-12-20T07:53:16;7.60;1.00
4637;DHT22;2331;48.806;9.140;2023-12-20T07:55:42;7.40;1.00
4637;DHT22;2331;48.806;9.140;2023-12-20T07:58:09;7.30;1.00
4637;DHT22;2331;48.806;9.140;2023-12-20T08:00:36;7.50;1.00
4637;DHT22;2331;48.806;9.140;2023-12-20T08:03:03;7.60;1.00
4637;DHT22;2331;48.806;9.140;2023-12-20T08:05:30;7.70;1.00
4637;DHT22;2331;48.806;9.140;2023-12-20T08:07:58;7.50;1.00
4637;DHT22;2331;48.806;9.140;2023-12-20T08:10:25;7.50;1.00
4637;DHT22;2331;48.806;9.140;2023-12-20T08:12:55;7.40;1.00
4637;DHT22;2331;48.806;9.140;2023-12-20T08:15:21;7.30;1.00
4637;DHT22;2331;48.806;9.140;2023-12-20T08:17:48;7.30;1.00
4637;DHT22;2331;48.806;9.140;2023-12-20T08:20:16;7.00;1.00
4637;DHT22;2331;48.806;9.140;2023-12-20T08:22:43;7.00;1.00
4637;DHT22;2331;48.806;9.140;2023-12-20T08:25:11;7.00;1.00
4637;DHT22;2331;48.806;9.140;2023-12-20T08:27:39;7.00;1.00
4637;DHT22;2331;48.806;9.140;2023-12-20T08:30:08;7.10;1.00
4637;DHT22;2331;48.806;9.140;2023-12-20T08:32:35;7.10;1.00
4637;DHT22;2331;48.806;9.140;2023-12-20T08:35:02;6.80;1.00
4637;DHT22;2331;48.806;9.140;2023-12-20T08:37:29;6.90;1.00
4637;DHT22;2331;48.806;9.140;2023-12-20T08:39:56;6.90;1.00
4637;DHT22;2331;48.806;9.140;2023-12-20T08:42:24;6.80;1.00
4637;DHT22;2331;48.806;9.140;2023-12-20T08:44:56;7.00;1.00
4637;DHT22;2331;48.806;9.140;2023-12-20T08:47:23;6.90;1.00
4637;DHT22;2331;48.806;9.140;2023-12-20T08:49:49;6.90;1.00
4637;DHT22;2331;48.806;9.140;2023-12-20T08:52:16;6.90;1.00
4637;DHT22;2331;48.806;9.140;2023-12-20T08:54:43;7.00;1.00
4637;DHT22;2331;48.806;9.140;2023-12-20T08:57:10;7.20;1.00
4637;DHT22;2331;48.806;9.140;2023-12-20T08:59:38;7.20;1.00
4637;DHT22;2331;48.806;9.140;2023-12-20T09:02:04;7.30;1.00
4637;DHT22;2331;48.806;9.140;2023-12-20T09:04:32;7.00;1.00
4637;DHT22;2331;48.806;9.140;2023-12-20T09:07:00;7.10;1.00
4637;DHT22;2331;48.806;9.140;2023-12-20T09:09:27;7.00;1.00
4637;DHT22;2331;48.806;9.140;2023-12-20T09:11:54;7.00;1.00
4637;DHT22;2331;48.806;9.140;2023-12-20T09:14:21;7.00;1.00
4637;DHT22;2331;48.806;9.140;2023-12-20T09:16:49;7.10;1.00
4637;DHT22;2331;48.806;9.140;2023-12-20T09:19:16;7.30;1.00
4637;DHT22;2331;48.806;9.140;2023-12-20T09:21:43;7.20;1.00
4637;DHT22;2331;48.806;9.140;2023-12-20T09:24:10;7.30;1.00
4637;DHT22;2331;48.806;9.140;2023-12-20T09:26:36;7.30;1.00
4637;DHT22;2331;48.806;9.140;2023-12-20T09:29:05;7.40;1.00
4637;DHT22;2331;48.806;9.140;2023-12-20T09:31:33;7.40;1.00
4637;DHT22;2331;48.806;9.140;2023-12-20T09:34:01;7.10;1.00
4637;DHT22;2331;48.806;9.140;2023-12-20T09:36:28;7.20;1.00
4637;DHT22;2331;48.806;9.140;2023-12-20T09:38:56;7.10;1.00
4637;DHT22;2331;48.806;9.140;2023-12-20T09:41:24;7.10;1.00
4637;DHT22;2331;48.806;9.140;2023-12-20T09:43:53;7.20;1.00
4637;DHT22;2331;48.806;9.140;2023-12-20T09:46:24;7.40;1.00
4637;DHT22;2331;48.806;9.140;2023-12-20T09:48:53;7.40;1.00
4637;DHT22;2331;48.806;9.140;2023-12-20T09:51:22;7.30;1.00
4637;DHT22;2331;48.806;9.140;2023-12-20T09:53:49;7.10;1.00
4637;DHT22;2331;48.806;9.140;2023-12-20T09:56:16;7.10;1.00
4637;DHT22;2331;48.806;9.140;2023-12-20T09:58:43;7.20;1.00
4637;DHT22;2331;48.806;9.140;2023-12-20T10:01:10;7.30;1.00
4637;DHT22;2331;48.806;9.140;2023-12-20T10:03:39;7.40;1.00
4637;DHT22;2331;48.806;9.140;2023-12-20T10:06:07;7.60;1.00
4637;DHT22;2331;48.806;9.140;2023-12-20T10:08:35;7.50;1.00
4637;DHT22;2331;48.806;9.140;2023-12-20T10:11:02;7.50;1.00
4637;DHT22;2331;48.806;9.140;2023-12-20T10:13:29;7.60;1.00
4637;DHT22;2331;48.806;9.140;2023-12-20T10:15:56;7.70;1.00
4637;DHT22;2331;48.806;9.140;2023-12-20T10:18:23;7.60;1.00
4637;DHT22;2331;48.806;9.140;2023-12-20T10:20:49;7.70;1.00
4637;DHT22;2331;48.806;9.140;2023-12-20T10:23:16;7.60;1.00
4637;DHT22;2331;48.806;9.140;2023-12-20T10:25:55;7.90;1.00
4637;DHT22;2331;48.806;9.140;2023-12-20T10:28:22;7.70;1.00
4637;DHT22;2331;48.806;9.140;2023-12-20T10:30:53;7.60;1.00
4637;DHT22;2331;48.806;9.140;2023-12-20T10:33:24;7.60;1.00
4637;DHT22;2331;48.806;9.140;2023-12-20T10:35:52;7.60;1.00
4637;DHT22;2331;48.806;9.140;2023-12-20T10:38:19;7.60;1.00
4637;DHT22;2331;48.806;9.140;2023-12-20T10:40:47;7.80;1.00
4637;DHT22;2331;48.806;9.140;2023-12-20T10:43:15;7.50;1.00
4637;DHT22;2331;48.806;9.140;2023-12-20T10:45:42;7.50;1.00
4637;DHT22;2331;48.806;9.140;2023-12-20T10:48:10;7.30;1.00
4637;DHT22;2331;48.806;9.140;2023-12-20T10:50:38;7.40;1.00
4637;DHT22;2331;48.806;9.140;2023-12-20T10:53:06;7.40;1.00
4637;DHT22;2331;48.806;9.140;2023-12-20T10:55:33;7.60;1.00
4637;DHT22;2331;48.806;9.140;2023-12-20T10:58:04;7.60;1.00
4637;DHT22;2331;48.806;9.140;2023-12-20T11:00:34;7.60;1.00
4637;DHT22;2331;48.806;9.140;2023-12-20T11:03:02;7.80;1.00
4637;DHT22;2331;48.806;9.140;2023-12-20T11:05:36;7.90;1.00
4637;DHT22;2331;48.806;9.140;2023-12-20T11:08:09;7.90;1.00
4637;DHT22;2331;48.806;9.140;2023-12-20T11:10:41;7.90;1.00
4637;DHT22;2331;48.806;9.140;2023-12-20T11:13:17;7.90;1.00
4637;DHT22;2331;48.806;9.140;2023-12-20T11:15:47;7.90;1.00
4637;DHT22;2331;48.806;9.140;2023-12-20T11:18:15;7.70;1.00
4637;DHT22;2331;48.806;9.140;2023-12-20T11:20:44;7.70;1.00
4637;DHT22;2331;48.806;9.140;2023-12-20T11:23:11;7.40;1.00
4637;DHT22;2331;48.806;9.140;2023-12-20T11:25:47;7.60;1.00
4637;DHT22;2331;48.806;9.140;2023-12-20T11:28:15;7.50;1.00
4637;DHT22;2331;48.806;9.140;2023-12-20T11:30:47;7.70;1.00
4637;DHT22;2331;48.806;9.140;2023-12-20T11:33:15;7.60;1.00
4637;DHT22;2331;48.806;9.140;2023-12-20T11:35:42;7.60;1.00
4637;DHT22;2331;48.806;9.140;2023-12-20T11:38:09;7.70;1.00
4637;DHT22;2331;48.806;9.140;2023-12-20T11:40:36;7.70;1.00
4637;DHT22;2331;48.806;9.140;2023-12-20T11:43:03;7.70;1.00
4637;DHT22;2331;48.806;9.140;2023-12-20T11:45:32;7.70;1.00
4637;DHT22;2331;48.806;9.140;2023-12-20T11:48:00;7.90;1.00
4637;DHT22;2331;48.806;9.140;2023-12-20T11:50:28;7.80;1.00
4637;DHT22;2331;48.806;9.140;2023-12-20T11:52:56;7.50;1.00
4637;DHT22;2331;48.806;9.140;2023-12-20T11:55:23;7.40;1.00
4637;DHT22;2331;48.806;9.140;2023-12-20T11:57:50;7.50;1.00
4637;DHT22;2331;48.806;9.140;2023-12-20T12:00:18;7.50;1.00
4637;DHT22;2331;48.806;9.140;2023-12-20T12:02:57;7.70;1.00
4637;DHT22;2331;48.806;9.140;2023-12-20T12:05:23;7.80;1.00
4637;DHT22;2331;48.806;9.140;2023-12-20T12:07:51;7.90;1.00
4637;DHT22;2331;48.806;9.140;2023-12-20T12:10:17;7.80;1.00
4637;DHT22;2331;48.806;9.140;2023-12-20T12:12:44;8.00;1.00
4637;DHT22;2331;48.806;9.140;2023-12-20T12:15:11;7.80;1.00
4637;DHT22;2331;48.806;9.140;2023-12-20T12:17:38;7.90;1.00
4637;DHT22;2331;48.806;9.140;2023-12-20T12:20:07;8.00;1.00
4637;DHT22;2331;48.806;9.140;2023-12-20T12:22:35;7.90;1.00
4637;DHT22;2331;48.806;9.140;2023-12-20T12:25:10;8.00;1.00
4637;DHT22;2331;48.806;9.140;2023-12-20T12:27:38;8.00;1.00
4637;DHT22;2331;48.806;9.140;2023-12-20T12:30:06;7.80;1.00
4637;DHT22;2331;48.806;9.140;2023-12-20T12:32:33;8.00;1.00
4637;DHT22;2331;48.806;9.140;2023-12-20T12:35:02;7.90;1.00
4637;DHT22;2331;48.806;9.140;2023-12-20T12:37:30;8.00;1.00
4637;DHT22;2331;48.806;9.140;2023-12-20T12:39:57;8.10;1.00
4637;DHT22;2331;48.806;9.140;2023-12-20T12:42:24;8.10;1.00
4637;DHT22;2331;48.806;9.140;2023-12-20T12:44:54;8.20;1.00
4637;DHT22;2331;48.806;9.140;2023-12-20T12:47:20;8.10;1.00
4637;DHT22;2331;48.806;9.140;2023-12-20T12:49:49;7.90;1.00
4637;DHT22;2331;48.806;9.140;2023-12-20T12:52:16;8.00;1.00
4637;DHT22;2331;48.806;9.140;2023-12-20T12:54:44;7.90;1.00
4637;DHT22;2331;48.806;9.140;2023-12-20T12:57:13;7.90;1.00
4637;DHT22;2331;48.806;9.140;2023-12-20T12:59:40;7.70;1.00
4637;DHT22;2331;48.806;9.140;2023-12-20T13:02:06;7.80;1.00
4637;DHT22;2331;48.806;9.140;2023-12-20T13:04:33;7.70;1.00
4637;DHT22;2331;48.806;9.140;2023-12-20T13:07:00;7.70;1.00
4637;DHT22;2331;48.806;9.140;2023-12-20T13:09:27;7.70;1.00
4637;DHT22;2331;48.806;9.140;2023-12-20T13:11:55;7.90;1.00
4637;DHT22;2331;48.806;9.140;2023-12-20T13:14:21;8.00;1.00
4637;DHT22;2331;48.806;9.140;2023-12-20T13:16:48;8.00;1.00
4637;DHT22;2331;48.806;9.140;2023-12-20T13:19:15;8.10;1.00
4637;DHT22;2331;48.806;9.140;2023-12-20T13:21:41;7.70;1.00
4637;DHT22;2331;48.806;9.140;2023-12-20T13:24:08;7.90;1.00
4637;DHT22;2331;48.806;9.140;2023-12-20T13:26:34;7.80;1.00
4637;DHT22;2331;48.806;9.140;2023-12-20T13:29:03;8.00;1.00
4637;DHT22;2331;48.806;9.140;2023-12-20T13:31:29;8.20;1.00
4637;DHT22;2331;48.806;9.140;2023-12-20T13:33:56;8.10;1.00
4637;DHT22;2331;48.806;9.140;2023-12-20T13:36:23;8.10;1.00
4637;DHT22;2331;48.806;9.140;2023-12-20T13:38:50;8.10;1.00
4637;DHT22;2331;48.806;9.140;2023-12-20T13:41:16;8.20;1.00
4637;DHT22;2331;48.806;9.140;2023-12-20T13:43:43;8.10;1.00
4637;DHT22;2331;48.806;9.140;2023-12-20T13:46:12;8.20;1.00
4637;DHT22;2331;48.806;9.140;2023-12-20T13:48:39;8.20;1.00
4637;DHT22;2331;48.806;9.140;2023-12-20T13:51:09;8.00;1.00
4637;DHT22;2331;48.806;9.140;2023-12-20T13:53:36;7.90;1.00
4637;DHT22;2331;48.806;9.140;2023-12-20T13:56:04;8.10;1.00
4637;DHT22;2331;48.806;9.140;2023-12-20T13:58:31;8.10;1.00
4637;DHT22;2331;48.806;9.140;2023-12-20T14:00:58;8.00;1.00
4637;DHT22;2331;48.806;9.140;2023-12-20T14:03:25;8.20;1.00
4637;DHT22;2331;48.806;9.140;2023-12-20T14:05:52;7.80;1.00
4637;DHT22;2331;48.806;9.140;2023-12-20T14:08:18;7.90;1.00
4637;DHT22;2331;48.806;9.140;2023-12-20T14:10:45;8.00;1.00
4637;DHT22;2331;48.806;9.140;2023-12-20T14:13:12;8.00;1.00
4637;DHT22;2331;48.806;9.140;2023-12-20T14:15:38;8.10;1.00
4637;DHT22;2331;48.806;9.140;2023-12-20T14:18:06;7.90;1.00
4637;DHT22;2331;48.806;9.140;2023-12-20T14:20:34;8.10;1.00
4637;DHT22;2331;48.806;9.140;2023-12-20T14:23:01;8.30;1.00
4637;DHT22;2331;48.806;9.140;2023-12-20T14:25:28;8.20;1.00
4637;DHT22;2331;48.806;9.140;2023-12-20T14:27:55;8.20;1.00
4637;DHT22;2331;48.806;9.140;2023-12-20T14:30:22;8.20;1.00
4637;DHT22;2331;48.806;9.140;2023-12-20T14:32:49;8.20;1.00
4637;DHT22;2331;48.806;9.140;2023-12-20T14:35:16;8.10;1.00
4637;DHT22;2331;48.806;9.140;2023-12-20T14:37:46;7.90;1.00
4637;DHT22;2331;48.806;9.140;2023-12-20T14:40:13;7.80;1.00
4637;DHT22;2331;48.806;9.140;2023-12-20T14:42:41;7.90;1.00
4637;DHT22;2331;48.806;9.140;2023-12-20T14:45:09;7.90;1.00
4637;DHT22;2331;48.806;9.140;2023-12-20T14:47:36;7.70;1.00
4637;DHT22;2331;48.806;9.140;2023-12-20T14:50:03;8.00;1.00
4637;DHT22;2331;48.806;9.140;2023-12-20T14:52:30;8.10;1.00
4637;DHT22;2331;48.806;9.140;2023-12-20T14:54:58;8.00;1.00
4637;DHT22;2331;48.806;9.140;2023-12-20T14:57:25;8.00;1.00
4637;DHT22;2331;48.806;9.140;2023-12-20T14:59:52;7.90;1.00
4637;DHT22;2331;48.806;9.140;2023-12-20T15:02:19;8.00;1.00
4637;DHT22;2331;48.806;9.140;2023-12-20T15:04:46;8.00;1.00
4637;DHT22;2331;48.806;9.140;2023-12-20T15:07:13;8.10;1.00
4637;DHT22;2331;48.806;9.140;2023-12-20T15:09:39;8.20;1.00
4637;DHT22;2331;48.806;9.140;2023-12-20T15:12:12;7.90;1.00
4637;DHT22;2331;48.806;9.140;2023-12-20T15:14:39;7.80;1.00
4637;DHT22;2331;48.806;9.140;2023-12-20T15:17:05;7.90;1.00
4637;DHT22;2331;48.806;9.140;2023-12-20T15:19:32;7.90;1.00
4637;DHT22;2331;48.806;9.140;2023-12-20T15:21:59;8.00;1.00
4637;DHT22;2331;48.806;9.140;2023-12-20T15:24:26;8.00;1.00
4637;DHT22;2331;48.806;9.140;2023-12-20T15:26:54;8.00;1.00
4637;DHT22;2331;48.806;9.140;2023-12-20T15:29:22;8.00;1.00
4637;DHT22;2331;48.806;9.140;2023-12-20T15:31:49;7.80;1.00
4637;DHT22;2331;48.806;9.140;2023-12-20T15:34:16;7.70;1.00
4637;DHT22;2331;48.806;9.140;2023-12-20T15:36:43;7.70;1.00
4637;DHT22;2331;48.806;9.140;2023-12-20T15:39:10;7.70;1.00
4637;DHT22;2331;48.806;9.140;2023-12-20T15:41:39;7.80;1.00
4637;DHT22;2331;48.806;9.140;2023-12-20T15:44:06;7.90;1.00
4637;DHT22;2331;48.806;9.140;2023-12-20T15:46:34;8.00;1.00
4637;DHT22;2331;48.806;9.140;2023-12-20T15:49:01;7.90;1.00
4637;DHT22;2331;48.806;9.140;2023-12-20T15:51:28;7.90;1.00
4637;DHT22;2331;48.806;9.140;2023-12-20T15:53:55;8.00;1.00
4637;DHT22;2331;48.806;9.140;2023-12-20T15:56:22;8.00;1.00
4637;DHT22;2331;48.806;9.140;2023-12-20T15:58:49;8.00;1.00
4637;DHT22;2331;48.806;9.140;2023-12-20T16:01:17;8.00;1.00
4637;DHT22;2331;48.806;9.140;2023-12-20T16:03:45;7.90;1.00
4637;DHT22;2331;48.806;9.140;2023-12-20T16:06:12;8.00;1.00
4637;DHT22;2331;48.806;9.140;2023-12-20T16:08:38;8.10;1.00
4637;DHT22;2331;48.806;9.140;2023-12-20T16:11:05;8.10;1.00
4637;DHT22;2331;48.806;9.140;2023-12-20T16:13:32;8.10;1.00
4637;DHT22;2331;48.806;9.140;2023-12-20T16:16:01;8.20;1.00
4637;DHT22;2331;48.806;9.140;2023-12-20T16:18:28;8.10;1.00
4637;DHT22;2331;48.806;9.140;2023-12-20T16:20:57;8.10;1.00
4637;DHT22;2331;48.806;9.140;2023-12-20T16:23:26;8.10;1.00
4637;DHT22;2331;48.806;9.140;2023-12-20T16:25:53;8.10;1.00
4637;DHT22;2331;48.806;9.140;2023-12-20T16:28:23;8.10;1.00
4637;DHT22;2331;48.806;9.140;2023-12-20T16:30:49;8.10;1.00
4637;DHT22;2331;48.806;9.140;2023-12-20T16:33:16;8.10;1.00
4637;DHT22;2331;48.806;9.140;2023-12-20T16:35:43;8.10;1.00
4637;DHT22;2331;48.806;9.140;2023-12-20T16:38:11;8.00;1.00